createdAt,value
2019-01-16T00:00:23.572Z,99022.84
2019-01-16T00:03:14.884Z,99020.58
2019-01-16T00:06:03.559Z,99029.45
2019-01-16T00:08:52.019Z,99017.70
2019-01-16T00:11:49.833Z,99013.52
2019-01-16T00:14:36.345Z,99009.39
2019-01-16T00:17:23.520Z,99013.62
2019-01-16T00:20:10.359Z,99018.34
2019-01-16T00:22:57.439Z,99013.44
2019-01-16T00:25:48.725Z,99018.72
2019-01-16T00:28:43.419Z,99022.34
2019-01-16T00:31:38.069Z,99018.75
2019-01-16T00:34:32.654Z,99022.94
2019-01-16T00:37:21.228Z,99021.27
2019-01-16T00:40:09.678Z,99010.80
2019-01-16T00:42:58.532Z,99017.41
2019-01-16T00:45:49.890Z,99022.69
2019-01-16T00:48:30.201Z,99010.93
2019-01-16T00:51:24.732Z,99013.11
2019-01-16T00:54:11.896Z,99020.33
2019-01-16T00:57:00.414Z,99015.39
2019-01-16T01:00:03.941Z,99016.11
2019-01-16T01:02:48.155Z,99013.22
2019-01-16T01:05:35.358Z,99008.98
2019-01-16T01:08:22.405Z,99010.33
2019-01-16T01:11:10.905Z,99000.80
2019-01-16T01:14:05.643Z,99005.24
2019-01-16T01:17:03.202Z,99001.87
2019-01-16T01:19:50.075Z,98996.10
2019-01-16T01:22:41.407Z,98988.98
2019-01-16T01:25:28.652Z,98976.70
2019-01-16T01:28:23.132Z,98975.02
2019-01-16T01:31:11.596Z,98970.30
2019-01-16T01:33:58.749Z,98981.05
2019-01-16T01:36:49.240Z,98968.95
2019-01-16T01:39:43.591Z,98975.16
2019-01-16T01:42:44.267Z,98977.47
2019-01-16T01:45:33.096Z,98977.40
2019-01-16T01:48:28.356Z,98967.45
2019-01-16T01:51:19.580Z,98962.78
2019-01-16T01:54:07.540Z,98961.12
2019-01-16T01:56:54.464Z,98963.43
2019-01-16T01:59:41.590Z,98976.91
2019-01-16T02:02:30.061Z,98970.17
2019-01-16T02:05:30.407Z,98976.53
2019-01-16T02:08:10.199Z,98965.61
2019-01-16T02:11:05.190Z,98959.84
2019-01-16T02:13:52.346Z,98955.22
2019-01-16T02:16:41.386Z,98965.37
2019-01-16T02:19:28.404Z,98968.92
2019-01-16T02:22:19.755Z,98980.23
2019-01-16T02:25:20.296Z,98969.74
2019-01-16T02:28:05.872Z,98971.30
2019-01-16T02:30:57.097Z,98978.15
2019-01-16T02:33:45.633Z,98972.28
2019-01-16T02:36:43.240Z,98965.81
2019-01-16T02:39:40.900Z,98952.28
2019-01-16T02:42:29.546Z,98954.39
2019-01-16T02:45:35.949Z,98948.55
2019-01-16T02:48:24.675Z,98945.17
2019-01-16T02:51:13.139Z,98949.02
2019-01-16T02:53:58.085Z,98944.43
2019-01-16T02:56:52.447Z,98938.19
2019-01-16T02:59:32.030Z,98931.45
2019-01-16T03:02:23.712Z,98929.30
2019-01-16T03:05:10.685Z,98918.77
2019-01-16T03:08:11.475Z,98914.36
2019-01-16T03:11:09.209Z,98914.62
2019-01-16T03:14:00.453Z,98908.11
2019-01-16T03:17:03.970Z,98899.88
2019-01-16T03:19:40.946Z,98883.88
2019-01-16T03:22:32.496Z,98888.66
2019-01-16T03:25:19.581Z,98875.95
2019-01-16T03:28:06.600Z,98887.17
2019-01-16T03:31:04.323Z,98881.77
2019-01-16T03:33:55.908Z,98877.33
2019-01-16T03:36:50.378Z,98879.09
2019-01-16T03:39:38.928Z,98879.87
2019-01-16T03:42:31.035Z,98873.35
2019-01-16T03:45:31.642Z,98875.14
2019-01-16T03:48:14.171Z,98874.88
2019-01-16T03:51:14.519Z,98877.11
2019-01-16T03:54:02.799Z,98876.73
2019-01-16T03:56:50.126Z,98867.74
2019-01-16T03:59:47.512Z,98871.03
2019-01-16T04:02:54.194Z,98872.66
2019-01-16T04:05:45.607Z,98877.11
2019-01-16T04:08:32.416Z,98870.52
2019-01-16T04:11:20.278Z,98865.73
2019-01-16T04:14:14.263Z,98880.54
2019-01-16T04:17:10.770Z,98887.77
2019-01-16T04:20:02.024Z,98882.29
2019-01-16T04:22:47.112Z,98888.94
2019-01-16T04:25:32.235Z,98881.45
2019-01-16T04:28:19.416Z,98882.66
2019-01-16T04:31:11.360Z,98878.12
2019-01-16T04:33:58.577Z,98888.57
2019-01-16T04:36:47.161Z,98894.64
2019-01-16T04:39:36.435Z,98888.37
2019-01-16T04:42:21.228Z,98894.93
2019-01-16T04:45:12.846Z,98886.00
2019-01-16T04:48:07.525Z,98875.23
2019-01-16T04:51:08.066Z,98885.63
2019-01-16T04:53:59.345Z,98885.08
2019-01-16T04:56:53.646Z,98885.84
2019-01-16T04:59:42.996Z,98890.23
2019-01-16T05:02:31.578Z,98883.47
2019-01-16T05:05:18.684Z,98887.00
2019-01-16T05:08:22.300Z,98876.45
2019-01-16T05:11:09.805Z,98883.47
2019-01-16T05:14:04.137Z,98878.08
2019-01-16T05:16:50.856Z,98871.64
2019-01-16T05:19:38.757Z,98876.86
2019-01-16T05:22:18.234Z,98868.52
2019-01-16T05:25:05.909Z,98866.68
2019-01-16T05:27:53.242Z,98872.70
2019-01-16T05:30:39.226Z,98862.38
2019-01-16T05:33:20.614Z,98860.75
2019-01-16T05:36:24.727Z,98875.21
2019-01-16T05:39:28.224Z,98874.53
2019-01-16T05:42:29.074Z,98874.16
2019-01-16T05:45:17.088Z,98876.77
2019-01-16T05:47:54.436Z,98869.69
2019-01-16T05:50:41.574Z,98874.09
2019-01-16T05:53:36.653Z,98868.36
2019-01-16T05:56:23.754Z,98877.73
2019-01-16T05:59:04.617Z,98873.05
2019-01-16T06:01:53.368Z,98870.81
2019-01-16T06:04:48.276Z,98881.78
2019-01-16T06:07:36.864Z,98877.02
2019-01-16T06:10:27.850Z,98874.81
2019-01-16T06:13:31.695Z,98883.04
2019-01-16T06:16:23.306Z,98893.31
2019-01-16T06:19:10.559Z,98889.02
2019-01-16T06:22:11.495Z,98898.41
2019-01-16T06:25:03.018Z,98910.86
2019-01-16T06:27:54.519Z,98912.81
2019-01-16T06:30:55.046Z,98918.49
2019-01-16T06:33:59.286Z,98910.94
2019-01-16T06:36:46.934Z,98924.73
2019-01-16T06:39:34.193Z,98922.20
2019-01-16T06:42:28.942Z,98919.84
2019-01-16T06:45:17.463Z,98919.34
2019-01-16T06:48:04.694Z,98907.20
2019-01-16T06:51:05.518Z,98920.28
2019-01-16T06:53:54.124Z,98920.17
2019-01-16T06:56:43.170Z,98924.09
2019-01-16T06:59:32.178Z,98927.67
2019-01-16T07:02:20.714Z,98928.81
2019-01-16T07:05:12.324Z,98938.23
2019-01-16T07:08:08.861Z,98933.02
2019-01-16T07:11:00.359Z,98932.89
2019-01-16T07:13:47.408Z,98940.42
2019-01-16T07:16:48.940Z,98937.52
2019-01-16T07:19:38.165Z,98933.99
2019-01-16T07:22:38.673Z,98932.56
2019-01-16T07:25:26.826Z,98935.83
2019-01-16T07:28:09.734Z,98934.49
2019-01-16T07:30:55.762Z,98937.68
2019-01-16T07:33:54.968Z,98935.13
2019-01-16T07:36:42.310Z,98934.57
2019-01-16T07:39:33.879Z,98923.58
2019-01-16T07:42:31.540Z,98915.42
2019-01-16T07:45:30.780Z,98911.41
2019-01-16T07:48:22.398Z,98919.37
2019-01-16T07:51:11.632Z,98920.35
2019-01-16T07:54:00.441Z,98913.42
2019-01-16T07:57:04.505Z,98922.53
2019-01-16T07:59:59.475Z,98922.06
2019-01-16T08:03:03.468Z,98911.08
2019-01-16T08:05:50.507Z,98911.04
2019-01-16T08:08:50.152Z,98916.34
2019-01-16T08:11:37.521Z,98916.77
2019-01-16T08:14:38.596Z,98924.31
2019-01-16T08:17:22.559Z,98922.16
2019-01-16T08:20:10.042Z,98930.97
2019-01-16T08:22:49.121Z,98944.03
2019-01-16T08:25:44.192Z,98928.39
2019-01-16T08:28:43.202Z,98935.54
2019-01-16T08:31:36.406Z,98935.31
2019-01-16T08:34:22.548Z,98933.02
2019-01-16T08:37:09.856Z,98930.84
2019-01-16T08:40:04.454Z,98936.27
2019-01-16T08:42:44.483Z,98930.47
2019-01-16T08:45:25.125Z,98930.28
2019-01-16T08:48:17.948Z,98921.42
2019-01-16T08:51:05.312Z,98919.75
2019-01-16T08:53:52.314Z,98917.25
2019-01-16T08:56:40.534Z,98920.39
2019-01-16T08:59:29.898Z,98911.30
2019-01-16T09:02:11.119Z,98915.70
2019-01-16T09:04:59.780Z,98914.56
2019-01-16T09:07:57.461Z,98905.00
2019-01-16T09:11:01.174Z,98914.67
2019-01-16T09:14:07.944Z,98896.11
2019-01-16T09:17:14.593Z,98905.86
2019-01-16T09:20:01.438Z,98885.95
2019-01-16T09:22:42.287Z,98886.05
2019-01-16T09:25:31.043Z,98894.63
2019-01-16T09:28:18.125Z,98877.86
2019-01-16T09:31:02.046Z,98859.55
2019-01-16T09:33:56.900Z,98860.73
2019-01-16T09:36:44.346Z,98858.56
2019-01-16T09:39:31.250Z,98849.77
2019-01-16T09:42:28.643Z,98849.30
2019-01-16T09:45:15.463Z,98841.66
2019-01-16T09:48:04.329Z,98832.48
2019-01-16T09:50:53.107Z,98821.97
2019-01-16T09:53:41.910Z,98825.16
2019-01-16T09:56:29.561Z,98828.53
2019-01-16T09:59:21.143Z,98833.52
2019-01-16T10:02:21.850Z,98802.78
2019-01-16T10:05:16.677Z,98800.44
2019-01-16T10:08:00.821Z,98809.30
2019-01-16T10:11:07.896Z,98809.30
2019-01-16T10:13:47.990Z,98805.98
2019-01-16T10:16:39.447Z,98800.62
2019-01-16T10:19:42.961Z,98799.95
2019-01-16T10:22:31.931Z,98803.80
2019-01-16T10:25:27.172Z,98785.72
2019-01-16T10:28:15.953Z,98792.72
2019-01-16T10:31:05.238Z,98794.31
2019-01-16T10:33:54.393Z,98793.34
2019-01-16T10:36:46.299Z,98803.01
2019-01-16T10:39:33.423Z,98785.92
2019-01-16T10:42:24.804Z,98806.83
2019-01-16T10:45:19.742Z,98773.36
2019-01-16T10:48:11.136Z,98779.53
2019-01-16T10:50:51.250Z,98772.52
2019-01-16T10:53:38.317Z,98772.14
2019-01-16T10:56:30.921Z,98768.94
2019-01-16T10:59:28.027Z,98771.41
2019-01-16T11:02:22.562Z,98774.16
2019-01-16T11:05:11.522Z,98770.22
2019-01-16T11:08:04.797Z,98757.61
2019-01-16T11:10:54.391Z,98767.95
2019-01-16T11:13:42.268Z,98763.91
2019-01-16T11:16:44.746Z,98752.41
2019-01-16T11:23:08.197Z,98741.75
2019-01-16T11:25:55.844Z,98777.70
2019-01-16T11:28:48.415Z,98755.81
2019-01-16T11:31:38.348Z,98777.84
2019-01-16T11:34:17.279Z,98773.48
2019-01-16T11:37:06.575Z,98776.58
2019-01-16T11:40:04.689Z,98795.52
2019-01-16T11:42:57.676Z,98775.67
2019-01-16T11:45:46.846Z,98776.95
2019-01-16T11:48:41.991Z,98793.52
2019-01-16T11:51:33.785Z,98796.29
2019-01-16T11:54:22.151Z,98791.85
2019-01-16T11:57:10.747Z,98793.23
2019-01-16T11:59:56.578Z,98800.37
2019-01-16T12:03:02.484Z,98796.09
2019-01-16T12:05:52.757Z,98787.87
2019-01-16T12:08:49.242Z,98789.66
2019-01-16T12:11:42.326Z,98784.66
2019-01-16T12:14:46.486Z,98781.60
2019-01-16T12:17:46.665Z,98781.95
2019-01-16T12:20:30.447Z,98776.30
2019-01-16T12:23:34.726Z,98778.84
2019-01-16T12:26:22.709Z,98774.31
2019-01-16T12:29:17.498Z,98766.78
2019-01-16T12:32:11.906Z,98777.13
2019-01-16T12:34:58.711Z,98779.36
2019-01-16T12:37:56.254Z,98774.45
2019-01-16T12:40:43.371Z,98775.10
2019-01-16T12:43:31.597Z,98760.07
2019-01-16T12:46:18.710Z,98762.20
2019-01-16T12:49:16.796Z,98748.28
2019-01-16T12:52:01.996Z,98761.47
2019-01-16T12:54:50.509Z,98767.43
2019-01-16T12:57:41.958Z,98750.27
2019-01-16T13:00:35.135Z,98755.45
2019-01-16T13:03:29.631Z,98762.11
2019-01-16T13:06:21.195Z,98752.41
2019-01-16T13:09:15.701Z,98764.25
2019-01-16T13:12:13.499Z,98759.12
2019-01-16T13:14:52.097Z,98756.75
2019-01-16T13:17:39.374Z,98759.46
2019-01-16T13:20:30.053Z,98788.17
2019-01-16T13:23:09.624Z,98778.62
2019-01-16T13:25:56.976Z,98772.83
2019-01-16T13:28:45.500Z,98782.10
2019-01-16T13:31:39.769Z,98781.55
2019-01-16T13:34:28.327Z,98780.22
2019-01-16T13:37:19.871Z,98789.75
2019-01-16T13:39:59.904Z,98790.81
2019-01-16T13:42:48.346Z,98792.86
2019-01-16T13:45:37.051Z,98790.10
2019-01-16T13:48:38.820Z,98788.01
2019-01-16T13:51:25.711Z,98775.77
2019-01-16T13:54:12.828Z,98775.62
2019-01-16T13:57:16.328Z,98778.08
2019-01-16T13:59:57.977Z,98790.09
2019-01-16T14:02:43.401Z,98787.30
2019-01-16T14:05:27.813Z,98782.77
2019-01-16T14:08:07.979Z,98779.09
2019-01-16T14:10:56.618Z,98784.81
2019-01-16T14:13:48.683Z,98788.60
2019-01-16T14:16:37.257Z,98777.58
2019-01-16T14:19:32.021Z,98775.20
2019-01-16T14:22:23.588Z,98772.38
2019-01-16T14:25:15.239Z,98767.54
2019-01-16T14:28:06.480Z,98776.96
2019-01-16T14:30:57.905Z,98775.13
2019-01-16T14:33:44.786Z,98775.98
2019-01-16T14:36:33.405Z,98784.88
2019-01-16T14:39:20.415Z,98782.21
2019-01-16T14:42:24.272Z,98787.20
2019-01-16T14:45:11.451Z,98798.96
2019-01-16T14:48:12.208Z,98801.45
2019-01-16T14:50:59.430Z,98793.58
2019-01-16T14:53:53.854Z,98801.81
2019-01-16T14:56:48.483Z,98814.83
2019-01-16T14:59:29.053Z,98821.85
2019-01-16T15:02:20.285Z,98814.80
2019-01-16T15:05:07.507Z,98813.64
2019-01-16T15:07:55.946Z,98827.36
2019-01-16T15:10:59.620Z,98829.69
2019-01-16T15:13:57.241Z,98845.55
2019-01-16T15:16:48.574Z,98849.05
2019-01-16T15:19:39.788Z,98845.91
2019-01-16T15:22:34.184Z,98845.39
2019-01-16T15:25:28.544Z,98844.39
2019-01-16T15:28:15.556Z,98845.53
2019-01-16T15:31:03.991Z,98852.72
2019-01-16T15:33:52.605Z,98857.92
2019-01-16T15:36:43.947Z,98863.45
2019-01-16T15:39:32.868Z,98863.09
2019-01-16T15:42:29.526Z,98876.47
2019-01-16T15:45:13.751Z,98867.25
2019-01-16T15:48:02.178Z,98871.28
2019-01-16T15:51:02.685Z,98882.03
2019-01-16T15:53:49.849Z,98882.34
2019-01-16T15:56:30.380Z,98884.23
2019-01-16T15:59:12.715Z,98886.84
2019-01-16T16:01:59.944Z,98881.50
2019-01-16T16:04:48.388Z,98890.03
2019-01-16T16:07:29.735Z,98884.84
2019-01-16T16:10:16.882Z,98901.22
2019-01-16T16:13:05.348Z,98885.08
2019-01-16T16:15:57.011Z,98879.70
2019-01-16T16:18:45.518Z,98883.17
2019-01-16T16:21:32.634Z,98897.27
2019-01-16T16:24:33.646Z,98893.27
2019-01-16T16:27:34.327Z,98902.96
2019-01-16T16:30:21.696Z,98908.31
2019-01-16T16:33:10.130Z,98901.80
2019-01-16T16:36:01.569Z,98917.19
2019-01-16T16:38:50.007Z,98914.34
2019-01-16T16:41:41.307Z,98927.05
2019-01-16T16:44:28.108Z,98931.91
2019-01-16T16:47:25.734Z,98940.26
2019-01-16T16:50:20.271Z,98944.08
2019-01-16T16:53:08.823Z,98932.73
2019-01-16T16:55:49.201Z,98939.92
2019-01-16T16:58:43.744Z,98947.80
2019-01-16T17:01:27.350Z,98948.14
2019-01-16T17:04:14.729Z,98957.81
2019-01-16T17:07:09.417Z,98961.98
2019-01-16T17:10:00.908Z,98964.87
2019-01-16T17:12:55.506Z,98965.83
2019-01-16T17:16:02.133Z,98969.04
2019-01-16T17:18:47.868Z,98967.99
2019-01-16T17:21:39.225Z,98973.88
2019-01-16T17:24:33.815Z,98971.55
2019-01-16T17:27:22.339Z,98984.69
2019-01-16T17:30:06.413Z,98991.07
2019-01-16T17:32:54.988Z,98987.23
2019-01-16T17:35:46.246Z,98975.88
2019-01-16T17:38:40.771Z,98971.85
2019-01-16T17:41:41.325Z,98971.19
2019-01-16T17:44:32.672Z,98971.37
2019-01-16T17:47:39.088Z,98978.58
2019-01-16T17:50:27.240Z,98975.03
2019-01-16T17:53:30.859Z,98978.58
2019-01-16T17:56:21.601Z,98977.55
2019-01-16T17:59:12.823Z,98992.54
2019-01-16T18:02:04.427Z,98989.61
2019-01-16T18:04:44.469Z,98998.48
2019-01-16T18:07:41.870Z,99004.83
2019-01-16T18:10:29.096Z,99001.83
2019-01-16T18:13:22.305Z,99005.53
2019-01-16T18:16:16.560Z,99007.84
2019-01-16T18:19:11.126Z,99013.39
2019-01-16T18:21:53.763Z,99009.87
2019-01-16T18:24:40.724Z,99014.38
2019-01-16T18:27:29.188Z,99017.41
2019-01-16T18:30:35.692Z,99027.12
2019-01-16T18:33:22.743Z,99028.45
2019-01-16T18:36:20.304Z,99034.45
2019-01-16T18:39:17.893Z,99027.27
2019-01-16T18:42:12.831Z,99028.95
2019-01-16T18:44:59.938Z,99024.77
2019-01-16T18:47:48.506Z,99033.61
2019-01-16T18:50:35.343Z,99034.14
2019-01-16T18:53:38.840Z,99021.23
2019-01-16T18:56:39.157Z,99026.77
2019-01-16T18:59:30.668Z,99032.95
2019-01-16T19:02:21.891Z,99045.12
2019-01-16T19:05:06.856Z,99048.87
2019-01-16T19:08:10.262Z,99052.62
2019-01-16T19:10:50.636Z,99055.00
2019-01-16T19:13:37.505Z,99060.63
2019-01-16T19:16:28.789Z,99064.37
2019-01-16T19:19:24.023Z,99076.67
2019-01-16T19:22:04.693Z,99080.70
2019-01-16T19:24:42.797Z,99085.91
2019-01-16T19:27:31.386Z,99075.39
2019-01-16T19:30:12.351Z,99090.05
2019-01-16T19:33:09.994Z,99088.66
2019-01-16T19:35:58.508Z,99092.02
2019-01-16T19:38:41.661Z,99100.88
2019-01-16T19:41:28.876Z,99098.58
2019-01-16T19:44:15.876Z,99110.58
2019-01-16T19:47:10.100Z,99104.77
2019-01-16T19:49:57.317Z,99119.19
2019-01-16T19:52:45.797Z,99120.23
2019-01-16T19:55:38.151Z,99107.25
2019-01-16T19:58:24.997Z,99120.38
2019-01-16T20:01:08.580Z,99121.80
2019-01-16T20:04:00.086Z,99125.78
2019-01-16T20:06:48.580Z,99131.09
2019-01-16T20:09:46.225Z,99137.39
2019-01-16T20:12:37.641Z,99137.48
2019-01-16T20:15:32.851Z,99145.06
2019-01-16T20:18:14.211Z,99139.66
2019-01-16T20:21:08.562Z,99146.63
2019-01-16T20:24:03.217Z,99153.06
2019-01-16T20:27:06.686Z,99154.40
2019-01-16T20:29:56.377Z,99159.60
2019-01-16T20:32:54.104Z,99164.88
2019-01-16T20:35:48.575Z,99163.75
2019-01-16T20:38:36.994Z,99167.37
2019-01-16T20:41:40.961Z,99167.41
2019-01-16T20:44:32.255Z,99171.81
2019-01-16T20:47:19.311Z,99165.46
2019-01-16T20:50:07.789Z,99158.23
2019-01-16T20:53:17.361Z,99162.09
2019-01-16T20:56:04.736Z,99163.28
2019-01-16T20:58:51.643Z,99161.83
2019-01-16T21:01:58.520Z,99167.12
2019-01-16T21:04:46.543Z,99168.13
2019-01-16T21:07:43.953Z,99163.11
2019-01-16T21:10:33.013Z,99170.51
2019-01-16T21:13:19.870Z,99171.46
2019-01-16T21:16:06.788Z,99164.89
2019-01-16T21:19:04.266Z,99159.52
2019-01-16T21:22:01.629Z,99158.95
2019-01-16T21:24:42.749Z,99156.89
2019-01-16T21:27:42.497Z,99148.12
2019-01-16T21:30:30.841Z,99149.64
2019-01-16T21:33:34.542Z,99145.27
2019-01-16T21:36:26.145Z,99153.64
2019-01-16T21:39:21.648Z,99160.20
2019-01-16T21:41:59.915Z,99169.14
2019-01-16T21:44:48.483Z,99174.12
2019-01-16T21:47:39.914Z,99180.48
2019-01-16T21:50:44.097Z,99181.89
2019-01-16T21:53:41.520Z,99177.81
2019-01-16T21:56:30.106Z,99170.33
2019-01-16T21:59:27.400Z,99172.30
2019-01-16T22:02:13.840Z,99169.46
2019-01-16T22:05:20.303Z,99174.16
2019-01-16T22:07:59.949Z,99172.52
2019-01-16T22:10:48.407Z,99168.63
2019-01-16T22:13:36.980Z,99161.88
2019-01-16T22:16:28.619Z,99163.47
2019-01-16T22:19:17.753Z,99166.64
2019-01-16T22:22:18.183Z,99165.30
2019-01-16T22:25:14.162Z,99161.59
2019-01-16T22:28:11.503Z,99151.66
2019-01-16T22:30:53.974Z,99153.24
2019-01-16T22:33:41.031Z,99151.80
2019-01-16T22:36:29.535Z,99146.48
2019-01-16T22:39:24.092Z,99146.78
2019-01-16T22:42:17.413Z,99149.58
2019-01-16T22:45:02.591Z,99144.52
2019-01-16T22:48:02.669Z,99140.31
2019-01-16T22:50:49.572Z,99140.81
2019-01-16T22:53:43.170Z,99131.24
2019-01-16T22:56:27.306Z,99132.30
2019-01-16T22:59:21.614Z,99130.45
2019-01-16T23:02:34.060Z,99130.59
2019-01-16T23:05:27.072Z,99132.86
2019-01-16T23:08:31.311Z,99126.94
2019-01-16T23:11:49.319Z,99124.30
2019-01-16T23:14:52.805Z,99121.86
2019-01-16T23:17:59.370Z,99115.88
2019-01-16T23:21:05.714Z,99122.05
2019-01-16T23:23:49.754Z,99128.58
2019-01-16T23:26:33.218Z,99121.55
2019-01-16T23:29:27.750Z,99125.39
2019-01-16T23:32:08.591Z,99124.48
2019-01-16T23:35:05.083Z,99123.84
2019-01-16T23:38:05.105Z,99123.67
2019-01-16T23:41:02.420Z,99126.10
2019-01-16T23:43:56.860Z,99129.72
2019-01-16T23:46:51.522Z,99137.23
2019-01-16T23:49:38.790Z,99147.50
2019-01-16T23:52:33.107Z,99144.72
2019-01-16T23:55:11.406Z,99144.64
2019-01-16T23:57:58.524Z,99156.21
